Time;durP1;ratioP1;P1;durP2;ratioP2;P2;SDS_P1;SDS_P2;PMS_P1;PMS_P2;Temp;Humidity;BMP_temperature;BMP_pressure;BME280_temperature;BME280_humidity;BME280_pressure;Samples;Min_cycle;Max_cycle;Signal;HPM_P1;HPM_P2
2022/12/12 00:06:36;;;;;;;48.83;30.00;;;;;3.10;98302.00;;;;16755376;28;20235;-50
2022/12/12 00:14:39;;;;;;;38.70;27.23;;;;;2.90;98312.00;;;;16752374;28;20284;-49
2022/12/12 00:22:43;;;;;;;41.23;25.33;;;;;2.60;98309.00;;;;16756107;28;20263;-48
2022/12/12 00:30:45;;;;;;;34.80;24.40;;;;;2.40;98325.00;;;;16731816;28;20297;-49
2022/12/12 00:38:49;;;;;;;39.37;25.13;;;;;2.60;98324.00;;;;16714726;28;20238;-49
2022/12/12 00:46:51;;;;;;;37.50;25.67;;;;;2.70;98323.00;;;;16706423;28;20303;-49
2022/12/12 00:54:55;;;;;;;40.10;25.57;;;;;2.40;98321.00;;;;16710532;28;20213;-49
2022/12/12 01:02:59;;;;;;;36.60;22.90;;;;;2.10;98332.00;;;;16758537;28;20316;-47
2022/12/12 01:11:02;;;;;;;69.23;33.60;;;;;2.40;98334.00;;;;16758224;28;20299;-50
2022/12/12 01:19:05;;;;;;;56.57;31.27;;;;;2.20;98330.00;;;;16738999;28;20225;-49
2022/12/12 01:27:09;;;;;;;46.83;29.23;;;;;2.00;98332.00;;;;16754961;28;20296;-49
2022/12/12 01:35:11;;;;;;;36.90;22.30;;;;;1.80;98340.00;;;;16721097;28;20221;-49
2022/12/12 01:43:17;;;;;;;35.87;23.13;;;;;1.90;98343.00;;;;16772940;28;20231;-49
2022/12/12 01:51:22;;;;;;;32.27;21.70;;;;;1.70;98352.00;;;;16768850;28;20263;-50
2022/12/12 01:59:26;;;;;;;35.13;20.70;;;;;1.60;98334.00;;;;16771205;28;20225;-47
2022/12/12 02:07:29;;;;;;;28.93;18.27;;;;;1.40;98347.00;;;;16776508;28;20224;-48
2022/12/12 02:15:40;;;;;;;33.07;19.50;;;;;1.50;98353.00;;;;16783763;28;20304;-48
2022/12/12 02:24:07;;;;;;;29.00;17.30;;;;;1.40;98353.00;;;;16774822;28;20729;-48
2022/12/12 02:32:18;;;;;;;27.60;16.93;;;;;1.00;98361.00;;;;16775304;28;20220;-48
2022/12/12 02:40:24;;;;;;;36.80;22.70;;;;;0.80;98367.00;;;;16735939;28;20230;-49
2022/12/12 02:48:33;;;;;;;23.97;15.87;;;;;0.80;98379.00;;;;16731966;28;20264;-48
2022/12/12 02:56:51;;;;;;;24.60;13.70;;;;;0.60;98380.00;;;;16723419;28;20240;-48
2022/12/12 03:13:33;;;;;;;22.47;13.87;;;;;0.10;98378.00;;;;16765387;28;20321;-48
2022/12/12 03:21:41;;;;;;;22.37;13.70;;;;;0.20;98390.00;;;;16766155;28;20222;-47
2022/12/12 03:29:48;;;;;;;22.97;14.43;;;;;0.10;98394.00;;;;16731531;28;20282;-47
2022/12/12 03:37:56;;;;;;;25.43;14.87;;;;;-0.20;98395.00;;;;16712365;28;20238;-47
2022/12/12 03:46:01;;;;;;;22.83;15.13;;;;;-0.20;98397.00;;;;16706773;28;20280;-47
2022/12/12 03:54:10;;;;;;;26.13;15.83;;;;;-0.10;98406.00;;;;16713718;28;20220;-47
2022/12/12 04:02:16;;;;;;;26.00;16.60;;;;;-0.20;98402.00;;;;16746168;28;20309;-48
2022/12/12 04:18:49;;;;;;;30.83;16.87;;;;;-0.50;98424.00;;;;16762751;28;20235;-48
2022/12/12 04:26:58;;;;;;;36.70;21.50;;;;;0.20;98421.00;;;;16749749;28;20224;-45
2022/12/12 04:35:04;;;;;;;40.70;22.90;;;;;0.40;98409.00;;;;16765055;28;20689;-46
2022/12/12 04:43:10;;;;;;;38.13;20.90;;;;;-0.20;98434.00;;;;16757942;28;20338;-48
2022/12/12 04:51:15;;;;;;;39.33;21.00;;;;;0.30;98434.00;;;;16745101;28;20222;-46
2022/12/12 04:59:20;;;;;;;30.77;18.67;;;;;-0.20;98443.00;;;;16750932;28;20270;-48
2022/12/12 05:07:30;;;;;;;33.43;20.20;;;;;0.10;98436.00;;;;16761410;28;20257;-48
2022/12/12 05:15:34;;;;;;;35.37;21.80;;;;;0.90;98421.00;;;;16757155;28;20687;-48
2022/12/12 05:23:36;;;;;;;39.50;23.30;;;;;1.10;98433.00;;;;16751525;28;20255;-48
2022/12/12 05:31:40;;;;;;;39.17;25.50;;;;;2.10;98426.00;;;;16736625;28;20303;-48
2022/12/12 05:39:42;;;;;;;42.33;25.40;;;;;2.10;98417.00;;;;16672058;28;20254;-48
2022/12/12 05:47:46;;;;;;;47.00;26.10;;;;;2.20;98415.00;;;;16685243;28;20225;-48
2022/12/12 05:55:50;;;;;;;39.03;25.13;;;;;2.20;98423.00;;;;16679897;28;20224;-49
2022/12/12 06:03:54;;;;;;;35.90;26.13;;;;;1.80;98437.00;;;;16704226;28;20202;-49
2022/12/12 06:11:56;;;;;;;39.20;26.50;;;;;2.20;98431.00;;;;16703359;28;20724;-49
2022/12/12 06:20:00;;;;;;;40.73;25.40;;;;;2.20;98444.00;;;;16701372;28;20239;-49
2022/12/12 06:28:02;;;;;;;43.43;26.63;;;;;2.10;98449.00;;;;16711382;28;20206;-48
2022/12/12 06:36:10;;;;;;;35.70;24.33;;;;;1.90;98458.00;;;;16723671;28;20226;-49
2022/12/12 06:44:13;;;;;;;39.87;27.20;;;;;1.60;98464.00;;;;16730842;28;20206;-49
2022/12/12 06:52:16;;;;;;;36.33;25.53;;;;;1.90;98466.00;;;;16705289;28;20306;-49
2022/12/12 07:00:20;;;;;;;34.13;24.33;;;;;2.00;98471.00;;;;16725019;22;20237;-73
2022/12/12 07:08:24;;;;;;;38.17;22.53;;;;;2.10;98477.00;;;;16772769;28;20225;-74
2022/12/12 07:16:26;;;;;;;43.57;25.70;;;;;1.50;98493.00;;;;16784883;28;20218;-77
2022/12/12 07:24:30;;;;;;;44.00;27.27;;;;;1.70;98492.00;;;;16781822;28;20217;-73
2022/12/12 07:32:33;;;;;;;38.23;25.17;;;;;1.60;98506.00;;;;16782726;28;20796;-73
2022/12/12 07:40:37;;;;;;;35.37;22.87;;;;;2.00;98502.00;;;;16798283;28;20224;-73
2022/12/12 07:48:40;;;;;;;34.67;24.03;;;;;2.00;98517.00;;;;16799583;28;20221;-73
2022/12/12 07:56:43;;;;;;;46.17;28.30;;;;;2.10;98508.00;;;;16800352;28;20222;-73
2022/12/12 08:04:46;;;;;;;51.03;31.40;;;;;2.20;98503.00;;;;16758298;28;20240;-72
2022/12/12 08:12:50;;;;;;;39.90;25.40;;;;;1.80;98519.00;;;;16762128;28;20201;-74
2022/12/12 08:20:53;;;;;;;42.13;27.43;;;;;1.90;98522.00;;;;16753746;28;20220;-73
2022/12/12 08:28:58;;;;;;;31.27;22.57;;;;;2.60;98514.00;;;;16745984;28;20297;-74
2022/12/12 08:37:00;;;;;;;35.57;23.27;;;;;2.60;98518.00;;;;16745074;28;20820;-73
2022/12/12 08:45:05;;;;;;;33.20;23.50;;;;;2.40;98541.00;;;;16735703;28;20418;-73
2022/12/12 08:53:07;;;;;;;36.17;24.17;;;;;2.90;98542.00;;;;16763046;28;20203;-74
2022/12/12 09:01:16;;;;;;;35.10;22.20;;;;;2.80;98542.00;;;;16743770;28;20734;-74
2022/12/12 09:09:19;;;;;;;33.53;19.73;;;;;3.00;98529.00;;;;16741205;28;20709;-74
2022/12/12 09:17:23;;;;;;;37.63;27.60;;;;;3.30;98535.00;;;;16743552;28;20259;-74
2022/12/12 09:25:25;;;;;;;36.90;25.17;;;;;3.20;98553.00;;;;16753852;28;20228;-73
2022/12/12 09:33:29;;;;;;;31.53;21.97;;;;;3.10;98556.00;;;;16742662;28;20194;-74
2022/12/12 09:41:32;;;;;;;31.80;21.17;;;;;3.60;98559.00;;;;16742585;28;20983;-75
2022/12/12 09:49:43;;;;;;;31.80;21.53;;;;;3.60;98540.00;;;;16747493;28;20229;-74
2022/12/12 09:57:49;;;;;;;33.30;21.70;;;;;3.40;98527.00;;;;16735300;28;20356;-75
2022/12/12 10:05:58;;;;;;;30.40;21.37;;;;;4.50;98517.00;;;;16773692;22;20222;-47
2022/12/12 10:14:02;;;;;;;29.80;20.60;;;;;4.70;98505.00;;;;16660549;28;20219;-48
2022/12/12 10:22:14;;;;;;;25.27;20.47;;;;;4.70;98511.00;;;;16636405;28;20237;-48
2022/12/12 10:30:19;;;;;;;26.60;18.40;;;;;4.20;98511.00;;;;16634385;28;20280;-48
2022/12/12 10:38:38;;;;;;;28.00;17.80;;;;;4.70;98509.00;;;;16641192;28;20227;-48
2022/12/12 10:46:43;;;;;;;27.17;18.63;;;;;3.50;98512.00;;;;16652002;28;20609;-47
2022/12/12 10:54:49;;;;;;;22.67;17.90;;;;;5.10;98496.00;;;;16651129;28;20394;-48
2022/12/12 11:02:51;;;;;;;24.23;18.00;;;;;5.20;98479.00;;;;16653995;28;20230;-48
2022/12/12 11:11:05;;;;;;;24.20;16.83;;;;;5.80;98481.00;;;;16648498;28;20236;-46
2022/12/12 11:19:18;;;;;;;23.87;16.70;;;;;7.40;98445.00;;;;16653538;28;20227;-48
2022/12/12 11:27:24;;;;;;;19.73;15.30;;;;;8.30;98432.00;;;;16653669;28;20222;-48
2022/12/12 11:35:29;;;;;;;20.63;15.60;;;;;8.40;98417.00;;;;16655339;28;20223;-46
2022/12/12 11:43:35;;;;;;;18.50;14.27;;;;;8.00;98420.00;;;;16644415;28;20225;-46
2022/12/12 11:51:40;;;;;;;20.70;15.50;;;;;9.60;98410.00;;;;16651790;28;20235;-46
2022/12/12 11:59:54;;;;;;;20.40;15.60;;;;;9.80;98396.00;;;;16646715;28;20257;-48
2022/12/12 12:08:07;;;;;;;17.53;15.00;;;;;9.10;98393.00;;;;16646454;28;20215;-46
2022/12/12 12:16:17;;;;;;;17.30;14.10;;;;;10.40;98380.00;;;;16645772;28;20325;-46
2022/12/12 12:24:55;;;;;;;17.87;14.07;;;;;10.70;98385.00;;;;16638367;28;20241;-47
2022/12/12 12:33:23;;;;;;;15.73;13.70;;;;;10.70;98372.00;;;;16647095;28;20233;-48
2022/12/12 12:41:37;;;;;;;14.60;13.00;;;;;10.60;98381.00;;;;16646537;28;20235;-48
2022/12/12 12:49:44;;;;;;;19.77;13.23;;;;;11.10;98375.00;;;;16638587;28;20786;-48
2022/12/12 12:57:49;;;;;;;13.30;11.90;;;;;11.50;98356.00;;;;16635660;28;20236;-49
2022/12/12 13:05:56;;;;;;;15.07;12.83;;;;;11.40;98354.00;;;;16642334;28;20262;-48
2022/12/12 13:14:04;;;;;;;14.33;12.20;;;;;11.50;98357.00;;;;16643623;28;20645;-49
2022/12/12 13:22:15;;;;;;;16.47;13.90;;;;;11.40;98357.00;;;;16643268;28;20285;-48
2022/12/12 13:30:22;;;;;;;19.37;13.57;;;;;11.50;98351.00;;;;16643395;28;20210;-48
2022/12/12 13:38:29;;;;;;;15.23;12.50;;;;;11.40;98339.00;;;;16646361;28;20363;-49
2022/12/12 13:46:40;;;;;;;16.00;12.60;;;;;10.80;98354.00;;;;16646550;28;20245;-48
2022/12/12 13:54:48;;;;;;;16.40;13.30;;;;;9.80;98356.00;;;;16699938;22;20271;-79
2022/12/12 14:03:02;;;;;;;17.40;13.73;;;;;7.10;98377.00;;;;16730549;28;20215;-80
2022/12/12 14:11:08;;;;;;;25.27;14.83;;;;;5.50;98400.00;;;;16715188;28;20221;-79
2022/12/12 14:19:26;;;;;;;19.60;14.20;;;;;5.20;98407.00;;;;16717173;28;20229;-79
2022/12/12 14:28:02;;;;;;;20.70;12.97;;;;;4.60;98417.00;;;;16713976;28;20312;-78
2022/12/12 14:36:08;;;;;;;18.20;14.30;;;;;4.90;98410.00;;;;16713325;28;20303;-78
2022/12/12 14:44:20;;;;;;;23.93;14.63;;;;;4.80;98413.00;;;;16723197;28;20250;-79
2022/12/12 14:52:24;;;;;;;29.20;14.23;;;;;5.90;98399.00;;;;16712851;28;20253;-80
2022/12/12 15:00:29;;;;;;;23.73;14.00;;;;;5.90;98384.00;;;;16706246;28;20323;-79
2022/12/12 15:08:32;;;;;;;33.00;17.27;;;;;6.40;98379.00;;;;16732829;28;20220;-79
2022/12/12 15:16:39;;;;;;;36.53;17.67;;;;;6.20;98385.00;;;;16720015;28;20664;-79
2022/12/12 15:24:43;;;;;;;24.73;16.97;;;;;6.10;98404.00;;;;16716404;28;21523;-80
2022/12/12 15:32:47;;;;;;;23.80;18.17;;;;;6.00;98407.00;;;;16693976;28;20197;-79
2022/12/12 15:40:51;;;;;;;26.60;17.47;;;;;5.70;98414.00;;;;16708546;28;20271;-80
2022/12/12 15:48:55;;;;;;;23.40;16.23;;;;;5.40;98402.00;;;;16707093;28;20224;-79
2022/12/12 15:56:58;;;;;;;39.13;26.20;;;;;4.00;98429.00;;;;16696089;28;20229;-80
2022/12/12 16:05:08;;;;;;;32.10;20.73;;;;;3.50;98439.00;;;;16687365;28;20214;-78
2022/12/12 16:13:24;;;;;;;17.17;14.10;;;;;2.30;98436.00;;;;16705812;28;20698;-78
2022/12/12 16:21:28;;;;;;;30.37;20.20;;;;;2.80;98443.00;;;;16690585;28;20693;-79
2022/12/12 16:29:31;;;;;;;22.90;17.47;;;;;2.20;98463.00;;;;16694795;28;20306;-79
2022/12/12 16:37:35;;;;;;;21.63;16.07;;;;;2.10;98478.00;;;;16747607;22;20225;-47
2022/12/12 16:45:37;;;;;;;24.57;17.43;;;;;2.10;98484.00;;;;16704382;28;20801;-47
2022/12/12 16:53:41;;;;;;;31.03;18.20;;;;;1.70;98505.00;;;;16712440;28;20248;-47
2022/12/12 17:01:44;;;;;;;30.67;21.60;;;;;1.60;98509.00;;;;16705245;28;20236;-47
2022/12/12 17:09:48;;;;;;;27.10;18.73;;;;;1.30;98508.00;;;;16717957;28;20316;-46
2022/12/12 17:17:50;;;;;;;32.13;22.00;;;;;1.30;98515.00;;;;16699697;28;20330;-47
2022/12/12 17:25:54;;;;;;;31.43;20.87;;;;;1.20;98513.00;;;;16704206;28;20233;-47
2022/12/12 17:33:56;;;;;;;30.97;20.37;;;;;0.90;98510.00;;;;16676291;28;20249;-47
2022/12/12 17:42:00;;;;;;;24.40;18.43;;;;;0.70;98500.00;;;;16690983;28;20234;-47
2022/12/12 17:50:03;;;;;;;28.63;16.37;;;;;0.70;98513.00;;;;16695050;28;20232;-47
2022/12/12 17:58:07;;;;;;;31.33;20.43;;;;;0.80;98497.00;;;;16694450;28;20719;-47
2022/12/12 18:06:10;;;;;;;26.03;16.50;;;;;0.50;98512.00;;;;16677122;28;20562;-47
2022/12/12 18:14:17;;;;;;;31.03;20.00;;;;;0.70;98508.00;;;;16679963;28;20225;-48
2022/12/12 18:22:20;;;;;;;30.13;18.13;;;;;0.40;98513.00;;;;16704691;28;20354;-47
2022/12/12 18:30:24;;;;;;;27.97;19.30;;;;;0.20;98522.00;;;;16706451;28;20266;-47
2022/12/12 18:38:28;;;;;;;25.83;17.90;;;;;0.10;98521.00;;;;16722217;28;20361;-47
2022/12/12 18:46:33;;;;;;;23.80;18.60;;;;;-0.10;98521.00;;;;16721058;28;20788;-46
2022/12/12 18:54:35;;;;;;;31.07;19.77;;;;;-0.10;98521.00;;;;16727938;28;20742;-47
2022/12/12 19:02:39;;;;;;;25.47;17.37;;;;;-0.10;98528.00;;;;16722464;28;25070;-47
2022/12/12 19:10:41;;;;;;;27.87;19.47;;;;;0.30;98519.00;;;;16679100;28;20252;-49
2022/12/12 19:18:46;;;;;;;31.27;22.20;;;;;0.50;98516.00;;;;16676743;28;20736;-48
2022/12/12 19:26:49;;;;;;;37.07;23.33;;;;;0.70;98520.00;;;;16694072;28;20502;-47
2022/12/12 19:34:53;;;;;;;30.43;21.77;;;;;-0.20;98522.00;;;;16699575;28;20712;-47
2022/12/12 19:42:55;;;;;;;31.30;21.23;;;;;-0.10;98508.00;;;;16684785;28;20235;-47
2022/12/12 19:51:05;;;;;;;37.40;21.50;;;;;-0.40;98505.00;;;;16689321;28;20212;-47
2022/12/12 19:59:07;;;;;;;33.93;22.80;;;;;-0.30;98507.00;;;;16694484;28;20460;-48
2022/12/12 20:07:11;;;;;;;36.17;22.60;;;;;-0.60;98507.00;;;;16709835;28;20292;-47
2022/12/12 20:15:14;;;;;;;34.87;22.57;;;;;-0.50;98511.00;;;;16698427;28;20316;-47
2022/12/12 20:23:17;;;;;;;31.53;21.40;;;;;-0.70;98520.00;;;;16700259;28;20222;-48
2022/12/12 20:31:21;;;;;;;42.27;27.70;;;;;-0.40;98511.00;;;;16702143;28;20692;-46
2022/12/12 20:39:25;;;;;;;36.27;22.30;;;;;-0.80;98519.00;;;;16699820;28;20273;-47
2022/12/12 20:47:28;;;;;;;31.57;19.10;;;;;-1.10;98519.00;;;;16702706;28;20199;-47
2022/12/12 20:55:35;;;;;;;34.50;22.37;;;;;-1.00;98526.00;;;;16697099;28;20222;-47
2022/12/12 21:03:39;;;;;;;36.50;21.87;;;;;-1.00;98519.00;;;;16703133;28;20237;-48
2022/12/12 21:11:42;;;;;;;32.40;21.10;;;;;-1.00;98516.00;;;;16704101;28;20212;-48
2022/12/12 21:19:45;;;;;;;35.00;19.50;;;;;-1.40;98520.00;;;;16679932;28;20243;-47
2022/12/12 21:27:49;;;;;;;35.40;21.70;;;;;-1.20;98517.00;;;;16664713;28;20229;-48
2022/12/12 21:35:52;;;;;;;31.43;19.50;;;;;-0.90;98504.00;;;;16668193;28;20238;-47
2022/12/12 21:43:58;;;;;;;29.60;17.13;;;;;-1.60;98517.00;;;;16672336;28;20410;-47
2022/12/12 21:52:02;;;;;;;35.23;22.40;;;;;-1.60;98502.00;;;;16696299;28;20684;-47
2022/12/12 22:00:25;;;;;;;35.87;20.73;;;;;-1.70;98511.00;;;;16688666;28;20301;-47
2022/12/12 22:08:27;;;;;;;26.83;17.40;;;;;-1.90;98514.00;;;;16720758;28;20205;-48
2022/12/12 22:16:33;;;;;;;29.30;18.97;;;;;-1.80;98509.00;;;;16750625;28;20644;-47
2022/12/12 22:24:35;;;;;;;33.70;18.13;;;;;-1.40;98501.00;;;;16772691;28;20601;-47
2022/12/12 22:32:39;;;;;;;30.10;19.90;;;;;-1.70;98502.00;;;;16755160;28;20227;-47
2022/12/12 22:40:41;;;;;;;29.20;18.30;;;;;-1.90;98505.00;;;;16767097;22;20237;-47
2022/12/12 22:48:45;;;;;;;31.17;19.20;;;;;-1.90;98493.00;;;;16772761;28;20311;-48
2022/12/12 22:56:47;;;;;;;31.77;19.17;;;;;-2.10;98494.00;;;;16730430;28;20238;-48
2022/12/12 23:04:51;;;;;;;31.93;20.60;;;;;-2.10;98485.00;;;;16735450;28;20223;-47
2022/12/12 23:12:54;;;;;;;22.47;14.03;;;;;-2.10;98477.00;;;;16742528;28;20217;-48
2022/12/12 23:20:58;;;;;;;20.97;14.33;;;;;-2.20;98464.00;;;;16717266;28;20246;-48
2022/12/12 23:29:00;;;;;;;25.17;17.13;;;;;-2.10;98463.00;;;;16720731;28;20687;-47
2022/12/12 23:37:04;;;;;;;24.87;17.70;;;;;-2.10;98461.00;;;;16740525;28;20233;-47
2022/12/12 23:53:57;;;;;;;23.93;15.37;;;;;-2.30;98451.00;;;;16564605;28;20663;-48
